sensor_id;sensor_type;location;lat;lon;timestamp;temperature;humidity
25188;DHT22;13141;50.414;8.050;2022-07-06T00:01:41;20.00;85.90
25188;DHT22;13141;50.414;8.050;2022-07-06T00:04:07;20.00;86.10
25188;DHT22;13141;50.414;8.050;2022-07-06T00:06:33;19.90;86.40
25188;DHT22;13141;50.414;8.050;2022-07-06T00:08:59;19.90;87.50
25188;DHT22;13141;50.414;8.050;2022-07-06T00:11:24;19.80;86.20
25188;DHT22;13141;50.414;8.050;2022-07-06T00:13:50;19.80;87.40
25188;DHT22;13141;50.414;8.050;2022-07-06T00:16:17;19.60;87.10
25188;DHT22;13141;50.414;8.050;2022-07-06T00:18:42;19.60;88.20
25188;DHT22;13141;50.414;8.050;2022-07-06T00:21:08;19.50;88.10
25188;DHT22;13141;50.414;8.050;2022-07-06T00:23:34;19.60;89.10
25188;DHT22;13141;50.414;8.050;2022-07-06T00:26:00;19.30;88.70
25188;DHT22;13141;50.414;8.050;2022-07-06T00:28:26;19.20;88.40
25188;DHT22;13141;50.414;8.050;2022-07-06T00:30:52;19.20;89.00
25188;DHT22;13141;50.414;8.050;2022-07-06T00:33:18;19.10;89.10
25188;DHT22;13141;50.414;8.050;2022-07-06T00:35:44;19.10;88.90
25188;DHT22;13141;50.414;8.050;2022-07-06T00:38:09;19.00;90.20
25188;DHT22;13141;50.414;8.050;2022-07-06T00:40:35;19.00;89.80
25188;DHT22;13141;50.414;8.050;2022-07-06T00:43:00;18.90;90.00
25188;DHT22;13141;50.414;8.050;2022-07-06T00:45:26;18.90;89.80
25188;DHT22;13141;50.414;8.050;2022-07-06T00:47:52;18.80;90.00
25188;DHT22;13141;50.414;8.050;2022-07-06T00:50:18;18.70;90.20
25188;DHT22;13141;50.414;8.050;2022-07-06T00:52:48;18.70;90.70
25188;DHT22;13141;50.414;8.050;2022-07-06T00:55:15;18.60;90.20
25188;DHT22;13141;50.414;8.050;2022-07-06T00:57:42;18.60;90.70
25188;DHT22;13141;50.414;8.050;2022-07-06T01:00:13;18.50;91.30
25188;DHT22;13141;50.414;8.050;2022-07-06T01:02:39;18.40;91.10
25188;DHT22;13141;50.414;8.050;2022-07-06T01:05:06;18.40;91.10
25188;DHT22;13141;50.414;8.050;2022-07-06T01:07:33;18.40;91.60
25188;DHT22;13141;50.414;8.050;2022-07-06T01:09:59;18.30;91.50
25188;DHT22;13141;50.414;8.050;2022-07-06T01:12:25;18.30;91.20
25188;DHT22;13141;50.414;8.050;2022-07-06T01:14:51;17.70;90.90
25188;DHT22;13141;50.414;8.050;2022-07-06T01:17:20;18.20;91.90
25188;DHT22;13141;50.414;8.050;2022-07-06T01:19:46;18.20;91.80
25188;DHT22;13141;50.414;8.050;2022-07-06T01:22:12;18.10;91.80
25188;DHT22;13141;50.414;8.050;2022-07-06T01:24:38;18.10;92.70
25188;DHT22;13141;50.414;8.050;2022-07-06T01:27:04;18.00;92.10
25188;DHT22;13141;50.414;8.050;2022-07-06T01:29:31;18.00;92.00
25188;DHT22;13141;50.414;8.050;2022-07-06T01:31:57;18.00;91.90
25188;DHT22;13141;50.414;8.050;2022-07-06T01:34:22;17.90;92.60
25188;DHT22;13141;50.414;8.050;2022-07-06T01:36:48;17.90;92.40
25188;DHT22;13141;50.414;8.050;2022-07-06T01:39:14;17.90;92.50
25188;DHT22;13141;50.414;8.050;2022-07-06T01:41:40;17.90;92.30
25188;DHT22;13141;50.414;8.050;2022-07-06T01:44:05;17.90;92.40
25188;DHT22;13141;50.414;8.050;2022-07-06T01:46:32;17.80;92.60
25188;DHT22;13141;50.414;8.050;2022-07-06T01:48:57;18.00;93.00
25188;DHT22;13141;50.414;8.050;2022-07-06T01:51:24;17.80;92.50
25188;DHT22;13141;50.414;8.050;2022-07-06T01:53:50;17.70;93.30
25188;DHT22;13141;50.414;8.050;2022-07-06T01:56:16;17.70;93.20
25188;DHT22;13141;50.414;8.050;2022-07-06T01:58:42;17.60;93.00
25188;DHT22;13141;50.414;8.050;2022-07-06T02:01:10;17.60;93.50
25188;DHT22;13141;50.414;8.050;2022-07-06T02:03:36;17.50;93.60
25188;DHT22;13141;50.414;8.050;2022-07-06T02:06:02;17.50;93.80
25188;DHT22;13141;50.414;8.050;2022-07-06T02:08:28;17.50;94.00
25188;DHT22;13141;50.414;8.050;2022-07-06T02:10:54;17.60;94.30
25188;DHT22;13141;50.414;8.050;2022-07-06T02:13:20;17.50;94.20
25188;DHT22;13141;50.414;8.050;2022-07-06T02:15:45;17.40;94.80
25188;DHT22;13141;50.414;8.050;2022-07-06T02:18:11;17.40;95.40
25188;DHT22;13141;50.414;8.050;2022-07-06T02:20:36;17.30;95.70
25188;DHT22;13141;50.414;8.050;2022-07-06T02:23:02;17.20;95.90
25188;DHT22;13141;50.414;8.050;2022-07-06T02:25:28;17.20;95.60
25188;DHT22;13141;50.414;8.050;2022-07-06T02:27:54;17.10;95.60
25188;DHT22;13141;50.414;8.050;2022-07-06T02:30:19;17.10;95.70
25188;DHT22;13141;50.414;8.050;2022-07-06T02:32:45;17.10;95.90
25188;DHT22;13141;50.414;8.050;2022-07-06T02:35:11;17.10;96.10
25188;DHT22;13141;50.414;8.050;2022-07-06T02:37:37;17.10;96.20
25188;DHT22;13141;50.414;8.050;2022-07-06T02:40:03;17.00;96.50
25188;DHT22;13141;50.414;8.050;2022-07-06T02:42:28;17.00;96.90
25188;DHT22;13141;50.414;8.050;2022-07-06T02:44:54;16.90;96.70
25188;DHT22;13141;50.414;8.050;2022-07-06T02:47:20;16.90;97.10
25188;DHT22;13141;50.414;8.050;2022-07-06T02:49:45;16.90;97.20
25188;DHT22;13141;50.414;8.050;2022-07-06T02:52:11;16.90;97.10
25188;DHT22;13141;50.414;8.050;2022-07-06T02:54:37;16.80;97.40
25188;DHT22;13141;50.414;8.050;2022-07-06T02:57:02;16.80;97.10
25188;DHT22;13141;50.414;8.050;2022-07-06T02:59:28;16.80;97.20
25188;DHT22;13141;50.414;8.050;2022-07-06T03:01:54;16.80;96.40
25188;DHT22;13141;50.414;8.050;2022-07-06T03:04:19;16.70;97.70
25188;DHT22;13141;50.414;8.050;2022-07-06T03:06:45;16.70;97.90
25188;DHT22;13141;50.414;8.050;2022-07-06T03:09:11;16.70;98.30
25188;DHT22;13141;50.414;8.050;2022-07-06T03:11:36;16.70;98.00
25188;DHT22;13141;50.414;8.050;2022-07-06T03:14:03;16.60;98.80
25188;DHT22;13141;50.414;8.050;2022-07-06T03:16:29;16.60;99.20
25188;DHT22;13141;50.414;8.050;2022-07-06T03:18:55;16.50;99.60
25188;DHT22;13141;50.414;8.050;2022-07-06T03:21:21;16.50;98.50
25188;DHT22;13141;50.414;8.050;2022-07-06T03:23:47;16.40;99.40
25188;DHT22;13141;50.414;8.050;2022-07-06T03:26:13;16.50;99.40
25188;DHT22;13141;50.414;8.050;2022-07-06T03:28:38;16.60;99.60
25188;DHT22;13141;50.414;8.050;2022-07-06T03:31:04;16.40;99.40
25188;DHT22;13141;50.414;8.050;2022-07-06T03:33:30;16.50;99.10
25188;DHT22;13141;50.414;8.050;2022-07-06T03:35:55;16.50;99.50
25188;DHT22;13141;50.414;8.050;2022-07-06T03:38:21;16.40;99.90
25188;DHT22;13141;50.414;8.050;2022-07-06T03:40:46;16.40;99.30
25188;DHT22;13141;50.414;8.050;2022-07-06T03:43:12;16.30;99.50
25188;DHT22;13141;50.414;8.050;2022-07-06T03:45:38;16.00;99.20
25188;DHT22;13141;50.414;8.050;2022-07-06T03:48:04;16.30;99.80
25188;DHT22;13141;50.414;8.050;2022-07-06T03:50:30;16.30;99.40
25188;DHT22;13141;50.414;8.050;2022-07-06T03:52:55;16.30;99.90
25188;DHT22;13141;50.414;8.050;2022-07-06T03:55:21;16.30;99.90
25188;DHT22;13141;50.414;8.050;2022-07-06T03:57:47;16.30;99.90
25188;DHT22;13141;50.414;8.050;2022-07-06T04:00:13;16.30;99.90
25188;DHT22;13141;50.414;8.050;2022-07-06T04:02:39;16.30;99.90
25188;DHT22;13141;50.414;8.050;2022-07-06T04:05:05;16.30;99.90
25188;DHT22;13141;50.414;8.050;2022-07-06T04:07:31;16.20;99.90
25188;DHT22;13141;50.414;8.050;2022-07-06T04:09:58;16.20;99.90
25188;DHT22;13141;50.414;8.050;2022-07-06T04:12:24;16.20;99.90
25188;DHT22;13141;50.414;8.050;2022-07-06T04:14:49;16.20;99.90
25188;DHT22;13141;50.414;8.050;2022-07-06T04:17:15;16.20;99.90
25188;DHT22;13141;50.414;8.050;2022-07-06T04:20:08;16.10;99.90
25188;DHT22;13141;50.414;8.050;2022-07-06T04:22:38;16.10;99.90
25188;DHT22;13141;50.414;8.050;2022-07-06T04:25:05;16.10;99.90
25188;DHT22;13141;50.414;8.050;2022-07-06T04:27:31;16.20;99.90
25188;DHT22;13141;50.414;8.050;2022-07-06T04:29:56;16.20;99.90
25188;DHT22;13141;50.414;8.050;2022-07-06T04:32:22;16.10;99.90
25188;DHT22;13141;50.414;8.050;2022-07-06T04:34:48;16.10;99.90
25188;DHT22;13141;50.414;8.050;2022-07-06T04:37:13;16.10;99.90
25188;DHT22;13141;50.414;8.050;2022-07-06T04:39:39;16.10;99.90
25188;DHT22;13141;50.414;8.050;2022-07-06T04:42:05;16.10;99.90
25188;DHT22;13141;50.414;8.050;2022-07-06T04:44:30;16.10;99.90
25188;DHT22;13141;50.414;8.050;2022-07-06T04:46:56;16.00;99.90
25188;DHT22;13141;50.414;8.050;2022-07-06T04:49:22;16.00;99.90
25188;DHT22;13141;50.414;8.050;2022-07-06T04:51:48;16.00;99.90
25188;DHT22;13141;50.414;8.050;2022-07-06T04:54:13;16.00;99.90
25188;DHT22;13141;50.414;8.050;2022-07-06T04:56:39;16.00;99.90
25188;DHT22;13141;50.414;8.050;2022-07-06T04:59:05;15.90;99.90
25188;DHT22;13141;50.414;8.050;2022-07-06T05:01:31;15.90;99.90
25188;DHT22;13141;50.414;8.050;2022-07-06T05:03:56;15.90;99.90
25188;DHT22;13141;50.414;8.050;2022-07-06T05:06:22;15.90;99.90
25188;DHT22;13141;50.414;8.050;2022-07-06T05:08:47;15.90;99.40
25188;DHT22;13141;50.414;8.050;2022-07-06T05:11:13;15.90;99.50
25188;DHT22;13141;50.414;8.050;2022-07-06T05:13:39;15.80;99.90
25188;DHT22;13141;50.414;8.050;2022-07-06T05:16:05;15.70;99.90
25188;DHT22;13141;50.414;8.050;2022-07-06T05:18:31;15.60;99.90
25188;DHT22;13141;50.414;8.050;2022-07-06T05:20:56;15.50;99.90
25188;DHT22;13141;50.414;8.050;2022-07-06T05:23:22;15.50;99.90
25188;DHT22;13141;50.414;8.050;2022-07-06T05:25:48;15.30;99.90
25188;DHT22;13141;50.414;8.050;2022-07-06T05:28:14;15.30;99.90
25188;DHT22;13141;50.414;8.050;2022-07-06T05:30:39;15.30;99.90
25188;DHT22;13141;50.414;8.050;2022-07-06T05:33:05;15.30;99.90
25188;DHT22;13141;50.414;8.050;2022-07-06T05:35:30;15.40;99.90
25188;DHT22;13141;50.414;8.050;2022-07-06T05:37:56;15.40;99.90
25188;DHT22;13141;50.414;8.050;2022-07-06T05:40:22;15.40;99.90
25188;DHT22;13141;50.414;8.050;2022-07-06T05:42:48;15.40;99.90
25188;DHT22;13141;50.414;8.050;2022-07-06T05:45:13;15.40;99.90
25188;DHT22;13141;50.414;8.050;2022-07-06T05:47:39;15.60;99.90
25188;DHT22;13141;50.414;8.050;2022-07-06T05:50:23;15.60;99.90
25188;DHT22;13141;50.414;8.050;2022-07-06T05:53:00;15.60;99.90
25188;DHT22;13141;50.414;8.050;2022-07-06T05:55:26;15.70;99.90
25188;DHT22;13141;50.414;8.050;2022-07-06T05:57:52;15.80;99.90
25188;DHT22;13141;50.414;8.050;2022-07-06T06:00:20;15.90;99.90
25188;DHT22;13141;50.414;8.050;2022-07-06T06:02:46;15.90;99.90
25188;DHT22;13141;50.414;8.050;2022-07-06T06:05:13;16.00;99.90
25188;DHT22;13141;50.414;8.050;2022-07-06T06:07:39;15.70;99.90
25188;DHT22;13141;50.414;8.050;2022-07-06T06:10:10;16.20;99.90
25188;DHT22;13141;50.414;8.050;2022-07-06T06:12:36;16.20;99.80
25188;DHT22;13141;50.414;8.050;2022-07-06T06:15:03;16.30;99.80
25188;DHT22;13141;50.414;8.050;2022-07-06T06:17:29;16.30;99.70
25188;DHT22;13141;50.414;8.050;2022-07-06T06:19:54;16.30;99.80
25188;DHT22;13141;50.414;8.050;2022-07-06T06:22:20;16.40;99.90
25188;DHT22;13141;50.414;8.050;2022-07-06T06:24:46;16.50;99.90
25188;DHT22;13141;50.414;8.050;2022-07-06T06:27:12;16.50;99.90
25188;DHT22;13141;50.414;8.050;2022-07-06T06:29:37;16.80;99.80
25188;DHT22;13141;50.414;8.050;2022-07-06T06:32:03;16.70;99.60
25188;DHT22;13141;50.414;8.050;2022-07-06T06:34:31;16.70;99.70
25188;DHT22;13141;50.414;8.050;2022-07-06T06:36:57;16.80;99.30
25188;DHT22;13141;50.414;8.050;2022-07-06T06:39:23;17.00;99.70
25188;DHT22;13141;50.414;8.050;2022-07-06T06:41:49;16.90;99.00
25188;DHT22;13141;50.414;8.050;2022-07-06T06:44:14;16.90;98.90
25188;DHT22;13141;50.414;8.050;2022-07-06T06:46:41;17.00;99.00
25188;DHT22;13141;50.414;8.050;2022-07-06T06:49:07;17.00;98.50
25188;DHT22;13141;50.414;8.050;2022-07-06T06:51:33;17.10;98.70
25188;DHT22;13141;50.414;8.050;2022-07-06T06:53:59;17.30;98.20
25188;DHT22;13141;50.414;8.050;2022-07-06T06:56:24;17.10;98.20
25188;DHT22;13141;50.414;8.050;2022-07-06T06:58:50;17.20;98.40
25188;DHT22;13141;50.414;8.050;2022-07-06T07:01:16;17.30;98.60
25188;DHT22;13141;50.414;8.050;2022-07-06T07:03:41;17.40;98.30
25188;DHT22;13141;50.414;8.050;2022-07-06T07:06:07;17.50;98.10
25188;DHT22;13141;50.414;8.050;2022-07-06T07:08:33;17.50;98.00
25188;DHT22;13141;50.414;8.050;2022-07-06T07:10:58;17.70;97.90
25188;DHT22;13141;50.414;8.050;2022-07-06T07:13:24;17.70;97.30
25188;DHT22;13141;50.414;8.050;2022-07-06T07:15:50;17.70;97.10
25188;DHT22;13141;50.414;8.050;2022-07-06T07:18:16;17.90;97.10
25188;DHT22;13141;50.414;8.050;2022-07-06T07:20:41;18.00;97.00
25188;DHT22;13141;50.414;8.050;2022-07-06T07:23:07;18.10;97.00
25188;DHT22;13141;50.414;8.050;2022-07-06T07:25:33;18.30;96.80
25188;DHT22;13141;50.414;8.050;2022-07-06T07:27:59;18.60;96.30
25188;DHT22;13141;50.414;8.050;2022-07-06T07:30:25;18.90;96.10
25188;DHT22;13141;50.414;8.050;2022-07-06T07:32:51;19.20;94.20
25188;DHT22;13141;50.414;8.050;2022-07-06T07:35:16;19.70;94.20
25188;DHT22;13141;50.414;8.050;2022-07-06T07:37:42;19.90;93.60
25188;DHT22;13141;50.414;8.050;2022-07-06T07:40:08;20.10;94.20
25188;DHT22;13141;50.414;8.050;2022-07-06T07:42:35;20.30;93.50
25188;DHT22;13141;50.414;8.050;2022-07-06T07:45:01;20.60;93.40
25188;DHT22;13141;50.414;8.050;2022-07-06T07:47:26;20.40;93.00
25188;DHT22;13141;50.414;8.050;2022-07-06T07:49:52;20.40;92.90
25188;DHT22;13141;50.414;8.050;2022-07-06T07:52:18;20.70;92.80
25188;DHT22;13141;50.414;8.050;2022-07-06T07:54:43;20.60;92.90
25188;DHT22;13141;50.414;8.050;2022-07-06T07:57:09;20.40;92.10
25188;DHT22;13141;50.414;8.050;2022-07-06T07:59:35;20.40;92.00
25188;DHT22;13141;50.414;8.050;2022-07-06T08:02:01;20.20;91.80
25188;DHT22;13141;50.414;8.050;2022-07-06T08:04:27;20.00;92.10
25188;DHT22;13141;50.414;8.050;2022-07-06T08:06:52;19.80;92.50
25188;DHT22;13141;50.414;8.050;2022-07-06T08:09:18;19.70;92.10
25188;DHT22;13141;50.414;8.050;2022-07-06T08:11:44;19.60;92.40
25188;DHT22;13141;50.414;8.050;2022-07-06T08:14:10;19.60;92.50
25188;DHT22;13141;50.414;8.050;2022-07-06T08:16:36;20.00;93.20
25188;DHT22;13141;50.414;8.050;2022-07-06T08:19:02;20.40;92.80
25188;DHT22;13141;50.414;8.050;2022-07-06T08:21:28;20.30;92.10
25188;DHT22;13141;50.414;8.050;2022-07-06T08:23:54;21.10;92.30
25188;DHT22;13141;50.414;8.050;2022-07-06T08:26:21;21.50;91.20
25188;DHT22;13141;50.414;8.050;2022-07-06T08:28:47;21.70;90.60
25188;DHT22;13141;50.414;8.050;2022-07-06T08:31:13;21.60;90.00
25188;DHT22;13141;50.414;8.050;2022-07-06T08:33:38;21.20;89.40
25188;DHT22;13141;50.414;8.050;2022-07-06T08:36:04;21.00;91.00
25188;DHT22;13141;50.414;8.050;2022-07-06T08:38:30;21.40;90.40
25188;DHT22;13141;50.414;8.050;2022-07-06T08:40:56;21.80;90.30
25188;DHT22;13141;50.414;8.050;2022-07-06T08:43:22;22.10;88.60
25188;DHT22;13141;50.414;8.050;2022-07-06T08:45:49;22.00;88.10
25188;DHT22;13141;50.414;8.050;2022-07-06T08:48:18;21.80;87.50
25188;DHT22;13141;50.414;8.050;2022-07-06T08:50:44;21.90;88.10
25188;DHT22;13141;50.414;8.050;2022-07-06T08:53:09;22.20;90.30
25188;DHT22;13141;50.414;8.050;2022-07-06T08:55:35;22.50;87.90
25188;DHT22;13141;50.414;8.050;2022-07-06T08:58:01;22.70;86.90
25188;DHT22;13141;50.414;8.050;2022-07-06T09:00:27;22.80;86.70
25188;DHT22;13141;50.414;8.050;2022-07-06T09:02:53;23.20;85.20
25188;DHT22;13141;50.414;8.050;2022-07-06T09:05:22;23.50;82.00
25188;DHT22;13141;50.414;8.050;2022-07-06T09:07:52;23.70;81.80
25188;DHT22;13141;50.414;8.050;2022-07-06T09:10:20;23.70;79.00
25188;DHT22;13141;50.414;8.050;2022-07-06T09:12:47;24.20;75.90
25188;DHT22;13141;50.414;8.050;2022-07-06T09:15:13;24.40;76.20
25188;DHT22;13141;50.414;8.050;2022-07-06T09:17:41;24.80;78.00
25188;DHT22;13141;50.414;8.050;2022-07-06T09:20:08;24.90;78.20
25188;DHT22;13141;50.414;8.050;2022-07-06T09:22:34;24.40;76.00
25188;DHT22;13141;50.414;8.050;2022-07-06T09:25:12;24.10;75.10
25188;DHT22;13141;50.414;8.050;2022-07-06T09:27:44;23.80;75.00
25188;DHT22;13141;50.414;8.050;2022-07-06T09:30:13;23.60;79.00
25188;DHT22;13141;50.414;8.050;2022-07-06T09:32:51;23.90;78.70
25188;DHT22;13141;50.414;8.050;2022-07-06T09:35:29;24.10;75.40
25188;DHT22;13141;50.414;8.050;2022-07-06T09:40:28;24.60;77.00
25188;DHT22;13141;50.414;8.050;2022-07-06T09:43:08;24.60;72.90
25188;DHT22;13141;50.414;8.050;2022-07-06T09:45:35;24.70;71.90
25188;DHT22;13141;50.414;8.050;2022-07-06T09:50:47;25.20;74.50
25188;DHT22;13141;50.414;8.050;2022-07-06T09:53:14;25.40;71.60
25188;DHT22;13141;50.414;8.050;2022-07-06T09:55:44;25.50;72.60
25188;DHT22;13141;50.414;8.050;2022-07-06T09:58:11;25.60;73.70
25188;DHT22;13141;50.414;8.050;2022-07-06T10:00:36;25.70;73.40
25188;DHT22;13141;50.414;8.050;2022-07-06T10:03:04;26.00;73.60
25188;DHT22;13141;50.414;8.050;2022-07-06T10:05:30;26.30;74.50
25188;DHT22;13141;50.414;8.050;2022-07-06T10:07:59;26.40;75.00
25188;DHT22;13141;50.414;8.050;2022-07-06T10:10:26;26.30;73.30
25188;DHT22;13141;50.414;8.050;2022-07-06T10:12:57;26.30;72.40
25188;DHT22;13141;50.414;8.050;2022-07-06T10:15:27;26.20;70.20
25188;DHT22;13141;50.414;8.050;2022-07-06T10:17:55;26.50;69.40
25188;DHT22;13141;50.414;8.050;2022-07-06T10:20:21;26.80;68.70
25188;DHT22;13141;50.414;8.050;2022-07-06T10:22:48;27.10;70.10
25188;DHT22;13141;50.414;8.050;2022-07-06T10:25:16;26.90;70.40
25188;DHT22;13141;50.414;8.050;2022-07-06T10:27:42;26.90;68.30
25188;DHT22;13141;50.414;8.050;2022-07-06T10:30:08;26.40;68.30
25188;DHT22;13141;50.414;8.050;2022-07-06T10:32:35;25.90;68.30
25188;DHT22;13141;50.414;8.050;2022-07-06T10:35:01;25.50;68.40
25188;DHT22;13141;50.414;8.050;2022-07-06T10:37:28;25.30;68.40
25188;DHT22;13141;50.414;8.050;2022-07-06T10:39:54;25.40;68.30
25188;DHT22;13141;50.414;8.050;2022-07-06T10:42:42;25.50;71.60
25188;DHT22;13141;50.414;8.050;2022-07-06T10:45:13;25.60;68.30
25188;DHT22;13141;50.414;8.050;2022-07-06T10:47:41;25.90;67.30
25188;DHT22;13141;50.414;8.050;2022-07-06T10:50:07;26.20;67.00
25188;DHT22;13141;50.414;8.050;2022-07-06T10:52:57;26.70;67.70
25188;DHT22;13141;50.414;8.050;2022-07-06T10:55:35;27.30;64.20
25188;DHT22;13141;50.414;8.050;2022-07-06T10:58:03;27.40;65.10
25188;DHT22;13141;50.414;8.050;2022-07-06T11:11:58;28.50;64.30
25188;DHT22;13141;50.414;8.050;2022-07-06T11:14:11;28.50;60.60
25188;DHT22;13141;50.414;8.050;2022-07-06T11:19:14;28.00;59.20
25188;DHT22;13141;50.414;8.050;2022-07-06T11:24:10;28.30;58.60
25188;DHT22;13141;50.414;8.050;2022-07-06T11:26:37;28.50;59.50
25188;DHT22;13141;50.414;8.050;2022-07-06T11:29:07;28.90;58.90
25188;DHT22;13141;50.414;8.050;2022-07-06T11:31:34;28.90;58.40
25188;DHT22;13141;50.414;8.050;2022-07-06T11:34:02;28.70;61.20
25188;DHT22;13141;50.414;8.050;2022-07-06T11:36:28;28.50;60.70
25188;DHT22;13141;50.414;8.050;2022-07-06T11:38:53;28.10;60.00
25188;DHT22;13141;50.414;8.050;2022-07-06T11:41:19;27.70;60.00
25188;DHT22;13141;50.414;8.050;2022-07-06T11:43:46;27.50;60.10
25188;DHT22;13141;50.414;8.050;2022-07-06T11:46:32;27.40;62.10
25188;DHT22;13141;50.414;8.050;2022-07-06T11:49:08;26.90;60.50
25188;DHT22;13141;50.414;8.050;2022-07-06T11:51:36;26.70;63.10
25188;DHT22;13141;50.414;8.050;2022-07-06T11:54:17;27.20;63.80
25188;DHT22;13141;50.414;8.050;2022-07-06T11:56:56;27.60;60.80
25188;DHT22;13141;50.414;8.050;2022-07-06T11:59:27;27.40;61.70
25188;DHT22;13141;50.414;8.050;2022-07-06T12:02:08;27.60;60.60
25188;DHT22;13141;50.414;8.050;2022-07-06T12:04:39;28.00;61.00
25188;DHT22;13141;50.414;8.050;2022-07-06T12:07:09;28.00;62.40
25188;DHT22;13141;50.414;8.050;2022-07-06T12:09:38;27.80;62.60
25188;DHT22;13141;50.414;8.050;2022-07-06T12:12:07;28.10;62.60
25188;DHT22;13141;50.414;8.050;2022-07-06T12:14:35;28.60;60.90
25188;DHT22;13141;50.414;8.050;2022-07-06T12:17:15;28.90;57.70
25188;DHT22;13141;50.414;8.050;2022-07-06T12:19:41;29.30;57.10
25188;DHT22;13141;50.414;8.050;2022-07-06T12:22:08;29.50;57.20
25188;DHT22;13141;50.414;8.050;2022-07-06T12:24:35;29.90;56.60
25188;DHT22;13141;50.414;8.050;2022-07-06T12:27:14;29.70;53.30
25188;DHT22;13141;50.414;8.050;2022-07-06T12:29:41;29.40;52.80
25188;DHT22;13141;50.414;8.050;2022-07-06T12:32:13;29.00;54.60
25188;DHT22;13141;50.414;8.050;2022-07-06T12:34:38;28.70;54.80
25188;DHT22;13141;50.414;8.050;2022-07-06T12:37:09;28.40;56.00
25188;DHT22;13141;50.414;8.050;2022-07-06T12:39:46;28.20;55.10
25188;DHT22;13141;50.414;8.050;2022-07-06T12:42:14;27.80;56.20
25188;DHT22;13141;50.414;8.050;2022-07-06T12:44:58;27.40;56.50
25188;DHT22;13141;50.414;8.050;2022-07-06T12:47:25;27.00;56.40
25188;DHT22;13141;50.414;8.050;2022-07-06T12:50:19;27.00;57.60
25188;DHT22;13141;50.414;8.050;2022-07-06T12:52:45;26.70;58.30
25188;DHT22;13141;50.414;8.050;2022-07-06T12:55:11;26.80;57.80
25188;DHT22;13141;50.414;8.050;2022-07-06T12:57:45;26.80;57.80
25188;DHT22;13141;50.414;8.050;2022-07-06T13:00:12;26.90;59.80
25188;DHT22;13141;50.414;8.050;2022-07-06T13:02:37;26.90;60.70
25188;DHT22;13141;50.414;8.050;2022-07-06T13:05:10;27.00;58.70
25188;DHT22;13141;50.414;8.050;2022-07-06T13:07:37;27.10;58.10
25188;DHT22;13141;50.414;8.050;2022-07-06T13:12:30;27.20;58.80
25188;DHT22;13141;50.414;8.050;2022-07-06T13:14:56;27.10;57.90
25188;DHT22;13141;50.414;8.050;2022-07-06T13:17:22;27.30;59.70
25188;DHT22;13141;50.414;8.050;2022-07-06T13:19:48;27.20;56.60
25188;DHT22;13141;50.414;8.050;2022-07-06T13:22:13;27.20;55.70
25188;DHT22;13141;50.414;8.050;2022-07-06T13:24:39;26.60;54.70
25188;DHT22;13141;50.414;8.050;2022-07-06T13:27:05;26.50;55.60
25188;DHT22;13141;50.414;8.050;2022-07-06T13:29:31;26.50;59.00
25188;DHT22;13141;50.414;8.050;2022-07-06T13:31:57;26.50;57.90
25188;DHT22;13141;50.414;8.050;2022-07-06T13:34:23;26.40;58.00
25188;DHT22;13141;50.414;8.050;2022-07-06T13:36:49;26.20;57.30
25188;DHT22;13141;50.414;8.050;2022-07-06T13:39:15;26.00;57.60
25188;DHT22;13141;50.414;8.050;2022-07-06T13:41:41;25.80;59.20
25188;DHT22;13141;50.414;8.050;2022-07-06T13:44:07;25.70;58.10
25188;DHT22;13141;50.414;8.050;2022-07-06T13:46:35;25.60;58.10
25188;DHT22;13141;50.414;8.050;2022-07-06T13:49:03;25.60;58.50
25188;DHT22;13141;50.414;8.050;2022-07-06T13:51:28;25.50;58.30
25188;DHT22;13141;50.414;8.050;2022-07-06T13:53:54;25.60;59.00
25188;DHT22;13141;50.414;8.050;2022-07-06T13:56:20;25.60;58.60
25188;DHT22;13141;50.414;8.050;2022-07-06T13:58:46;25.60;58.60
25188;DHT22;13141;50.414;8.050;2022-07-06T14:01:11;25.50;57.20
25188;DHT22;13141;50.414;8.050;2022-07-06T14:03:37;25.30;57.50
25188;DHT22;13141;50.414;8.050;2022-07-06T14:06:04;25.20;57.80
25188;DHT22;13141;50.414;8.050;2022-07-06T14:08:31;25.20;57.10
25188;DHT22;13141;50.414;8.050;2022-07-06T14:10:57;25.10;57.50
25188;DHT22;13141;50.414;8.050;2022-07-06T14:13:23;25.00;57.30
25188;DHT22;13141;50.414;8.050;2022-07-06T14:15:49;25.00;57.40
25188;DHT22;13141;50.414;8.050;2022-07-06T14:18:16;24.90;59.10
25188;DHT22;13141;50.414;8.050;2022-07-06T14:20:43;24.90;57.80
25188;DHT22;13141;50.414;8.050;2022-07-06T14:23:10;24.90;59.00
25188;DHT22;13141;50.414;8.050;2022-07-06T14:25:36;24.90;59.30
25188;DHT22;13141;50.414;8.050;2022-07-06T14:28:02;24.90;59.30
25188;DHT22;13141;50.414;8.050;2022-07-06T14:30:28;24.90;59.00
25188;DHT22;13141;50.414;8.050;2022-07-06T14:32:54;24.90;60.50
25188;DHT22;13141;50.414;8.050;2022-07-06T14:35:19;25.00;60.50
25188;DHT22;13141;50.414;8.050;2022-07-06T14:37:47;25.20;60.30
25188;DHT22;13141;50.414;8.050;2022-07-06T14:40:12;25.30;60.00
25188;DHT22;13141;50.414;8.050;2022-07-06T14:42:38;25.40;58.60
25188;DHT22;13141;50.414;8.050;2022-07-06T14:45:04;25.60;59.00
25188;DHT22;13141;50.414;8.050;2022-07-06T14:47:29;25.70;58.70
25188;DHT22;13141;50.414;8.050;2022-07-06T14:49:55;25.80;58.00
25188;DHT22;13141;50.414;8.050;2022-07-06T14:52:20;25.80;58.70
25188;DHT22;13141;50.414;8.050;2022-07-06T14:54:46;25.80;60.60
25188;DHT22;13141;50.414;8.050;2022-07-06T14:57:12;25.80;58.70
25188;DHT22;13141;50.414;8.050;2022-07-06T14:59:38;26.00;59.00
25188;DHT22;13141;50.414;8.050;2022-07-06T15:02:03;26.20;59.30
25188;DHT22;13141;50.414;8.050;2022-07-06T15:04:29;26.40;59.50
25188;DHT22;13141;50.414;8.050;2022-07-06T15:06:55;26.70;60.80
25188;DHT22;13141;50.414;8.050;2022-07-06T15:09:21;26.90;58.30
25188;DHT22;13141;50.414;8.050;2022-07-06T15:11:46;27.00;57.20
25188;DHT22;13141;50.414;8.050;2022-07-06T15:14:12;27.50;58.80
25188;DHT22;13141;50.414;8.050;2022-07-06T15:16:41;27.80;57.50
25188;DHT22;13141;50.414;8.050;2022-07-06T15:19:06;28.10;56.70
25188;DHT22;13141;50.414;8.050;2022-07-06T15:21:33;28.30;57.60
25188;DHT22;13141;50.414;8.050;2022-07-06T15:23:59;28.30;57.40
25188;DHT22;13141;50.414;8.050;2022-07-06T15:26:24;28.10;56.30
25188;DHT22;13141;50.414;8.050;2022-07-06T15:28:50;27.80;57.30
25188;DHT22;13141;50.414;8.050;2022-07-06T15:31:16;27.50;57.10
25188;DHT22;13141;50.414;8.050;2022-07-06T15:33:42;27.30;56.80
25188;DHT22;13141;50.414;8.050;2022-07-06T15:36:09;27.30;58.20
25188;DHT22;13141;50.414;8.050;2022-07-06T15:38:34;27.30;56.50
25188;DHT22;13141;50.414;8.050;2022-07-06T15:41:02;27.10;55.50
25188;DHT22;13141;50.414;8.050;2022-07-06T15:43:29;26.90;56.40
25188;DHT22;13141;50.414;8.050;2022-07-06T15:45:56;27.00;56.50
25188;DHT22;13141;50.414;8.050;2022-07-06T15:48:24;27.10;56.10
25188;DHT22;13141;50.414;8.050;2022-07-06T15:50:50;27.00;55.90
25188;DHT22;13141;50.414;8.050;2022-07-06T15:53:16;26.80;56.40